sensor_id;sensor_type;location;lat;lon;timestamp;P1;durP1;ratioP1;P2;durP2;ratioP2
11263;SDS011;5689;48.798;9.070;2023-03-01T00:01:17;2.27;;;2.17;;
11263;SDS011;5689;48.798;9.070;2023-03-01T00:03:47;1.73;;;1.73;;
11263;SDS011;5689;48.798;9.070;2023-03-01T00:06:16;2.20;;;2.10;;
11263;SDS011;5689;48.798;9.070;2023-03-01T00:08:45;2.10;;;2.00;;
11263;SDS011;5689;48.798;9.070;2023-03-01T00:11:14;2.07;;;1.97;;
11263;SDS011;5689;48.798;9.070;2023-03-01T00:13:45;2.53;;;2.43;;
11263;SDS011;5689;48.798;9.070;2023-03-01T00:16:14;2.20;;;2.10;;
11263;SDS011;5689;48.798;9.070;2023-03-01T00:18:44;2.00;;;1.90;;
11263;SDS011;5689;48.798;9.070;2023-03-01T00:21:12;2.67;;;2.57;;
11263;SDS011;5689;48.798;9.070;2023-03-01T00:23:41;2.40;;;2.30;;
11263;SDS011;5689;48.798;9.070;2023-03-01T00:26:10;2.47;;;2.37;;
11263;SDS011;5689;48.798;9.070;2023-03-01T00:28:41;2.00;;;1.90;;
11263;SDS011;5689;48.798;9.070;2023-03-01T00:31:10;2.00;;;1.90;;
11263;SDS011;5689;48.798;9.070;2023-03-01T00:33:40;2.33;;;2.23;;
11263;SDS011;5689;48.798;9.070;2023-03-01T00:36:09;2.20;;;2.10;;
11263;SDS011;5689;48.798;9.070;2023-03-01T00:38:39;2.27;;;2.17;;
11263;SDS011;5689;48.798;9.070;2023-03-01T00:41:10;2.20;;;2.10;;
11263;SDS011;5689;48.798;9.070;2023-03-01T00:43:40;2.10;;;2.00;;
11263;SDS011;5689;48.798;9.070;2023-03-01T00:46:10;2.30;;;2.20;;
11263;SDS011;5689;48.798;9.070;2023-03-01T00:48:39;2.17;;;2.07;;
11263;SDS011;5689;48.798;9.070;2023-03-01T00:51:09;1.97;;;1.87;;
11263;SDS011;5689;48.798;9.070;2023-03-01T00:53:39;2.20;;;2.10;;
11263;SDS011;5689;48.798;9.070;2023-03-01T00:56:09;2.20;;;2.10;;
11263;SDS011;5689;48.798;9.070;2023-03-01T00:58:38;2.57;;;2.47;;
11263;SDS011;5689;48.798;9.070;2023-03-01T01:01:07;2.53;;;2.43;;
11263;SDS011;5689;48.798;9.070;2023-03-01T01:03:44;2.27;;;2.17;;
11263;SDS011;5689;48.798;9.070;2023-03-01T01:06:14;2.53;;;2.43;;
11263;SDS011;5689;48.798;9.070;2023-03-01T01:08:48;2.43;;;2.33;;
11263;SDS011;5689;48.798;9.070;2023-03-01T01:11:17;2.50;;;2.40;;
11263;SDS011;5689;48.798;9.070;2023-03-01T01:13:46;2.37;;;2.27;;
11263;SDS011;5689;48.798;9.070;2023-03-01T01:16:16;2.30;;;2.20;;
11263;SDS011;5689;48.798;9.070;2023-03-01T01:18:46;2.43;;;2.33;;
11263;SDS011;5689;48.798;9.070;2023-03-01T01:21:16;2.37;;;2.27;;
11263;SDS011;5689;48.798;9.070;2023-03-01T01:23:46;2.40;;;2.30;;
11263;SDS011;5689;48.798;9.070;2023-03-01T01:26:17;2.63;;;2.53;;
11263;SDS011;5689;48.798;9.070;2023-03-01T01:28:48;2.63;;;2.53;;
11263;SDS011;5689;48.798;9.070;2023-03-01T01:31:17;2.33;;;2.23;;
11263;SDS011;5689;48.798;9.070;2023-03-01T01:33:46;2.33;;;2.23;;
11263;SDS011;5689;48.798;9.070;2023-03-01T01:36:14;2.60;;;2.50;;
11263;SDS011;5689;48.798;9.070;2023-03-01T01:38:43;2.40;;;2.30;;
11263;SDS011;5689;48.798;9.070;2023-03-01T01:41:13;2.10;;;2.00;;
11263;SDS011;5689;48.798;9.070;2023-03-01T01:43:43;2.50;;;2.40;;
11263;SDS011;5689;48.798;9.070;2023-03-01T01:46:15;2.50;;;2.40;;
11263;SDS011;5689;48.798;9.070;2023-03-01T01:48:49;2.33;;;2.23;;
11263;SDS011;5689;48.798;9.070;2023-03-01T01:51:24;2.50;;;2.40;;
11263;SDS011;5689;48.798;9.070;2023-03-01T01:53:55;2.40;;;2.30;;
11263;SDS011;5689;48.798;9.070;2023-03-01T01:56:27;2.10;;;2.00;;
11263;SDS011;5689;48.798;9.070;2023-03-01T01:58:57;2.33;;;2.23;;
11263;SDS011;5689;48.798;9.070;2023-03-01T02:01:25;2.67;;;2.57;;
11263;SDS011;5689;48.798;9.070;2023-03-01T02:03:53;2.83;;;2.63;;
11263;SDS011;5689;48.798;9.070;2023-03-01T02:06:22;2.80;;;2.67;;
11263;SDS011;5689;48.798;9.070;2023-03-01T02:08:56;2.80;;;2.70;;
11263;SDS011;5689;48.798;9.070;2023-03-01T02:11:28;2.83;;;2.63;;
11263;SDS011;5689;48.798;9.070;2023-03-01T02:13:58;2.10;;;2.00;;
11263;SDS011;5689;48.798;9.070;2023-03-01T02:16:26;2.20;;;2.10;;
11263;SDS011;5689;48.798;9.070;2023-03-01T02:18:55;2.20;;;2.10;;
11263;SDS011;5689;48.798;9.070;2023-03-01T02:21:30;2.10;;;2.00;;
11263;SDS011;5689;48.798;9.070;2023-03-01T02:24:05;2.30;;;2.20;;
11263;SDS011;5689;48.798;9.070;2023-03-01T02:26:45;2.43;;;2.33;;
11263;SDS011;5689;48.798;9.070;2023-03-01T02:29:17;2.23;;;2.13;;
11263;SDS011;5689;48.798;9.070;2023-03-01T02:31:46;2.17;;;2.07;;
11263;SDS011;5689;48.798;9.070;2023-03-01T02:34:15;1.77;;;1.77;;
11263;SDS011;5689;48.798;9.070;2023-03-01T02:36:46;2.00;;;1.90;;
11263;SDS011;5689;48.798;9.070;2023-03-01T02:39:18;1.60;;;1.60;;
11263;SDS011;5689;48.798;9.070;2023-03-01T02:41:50;1.70;;;1.70;;
11263;SDS011;5689;48.798;9.070;2023-03-01T02:44:21;1.80;;;1.80;;
11263;SDS011;5689;48.798;9.070;2023-03-01T02:46:50;1.97;;;1.87;;
11263;SDS011;5689;48.798;9.070;2023-03-01T02:49:20;1.73;;;1.73;;
11263;SDS011;5689;48.798;9.070;2023-03-01T02:52:01;1.70;;;1.70;;
11263;SDS011;5689;48.798;9.070;2023-03-01T02:54:43;1.60;;;1.60;;
11263;SDS011;5689;48.798;9.070;2023-03-01T02:57:15;1.83;;;1.80;;
11263;SDS011;5689;48.798;9.070;2023-03-01T02:59:45;1.70;;;1.70;;
11263;SDS011;5689;48.798;9.070;2023-03-01T03:02:20;1.77;;;1.77;;
11263;SDS011;5689;48.798;9.070;2023-03-01T03:05:06;2.17;;;2.07;;
11263;SDS011;5689;48.798;9.070;2023-03-01T03:07:38;1.73;;;1.73;;
11263;SDS011;5689;48.798;9.070;2023-03-01T03:10:08;1.60;;;1.60;;
11263;SDS011;5689;48.798;9.070;2023-03-01T03:12:39;1.50;;;1.50;;
11263;SDS011;5689;48.798;9.070;2023-03-01T03:15:09;1.80;;;1.80;;
11263;SDS011;5689;48.798;9.070;2023-03-01T03:17:39;1.80;;;1.70;;
11263;SDS011;5689;48.798;9.070;2023-03-01T03:20:11;1.60;;;1.60;;
11263;SDS011;5689;48.798;9.070;2023-03-01T03:22:45;1.67;;;1.67;;
11263;SDS011;5689;48.798;9.070;2023-03-01T03:25:14;1.50;;;1.50;;
11263;SDS011;5689;48.798;9.070;2023-03-01T03:27:44;1.40;;;1.40;;
11263;SDS011;5689;48.798;9.070;2023-03-01T03:30:15;1.67;;;1.67;;
11263;SDS011;5689;48.798;9.070;2023-03-01T03:32:46;1.30;;;1.30;;
11263;SDS011;5689;48.798;9.070;2023-03-01T03:35:19;1.60;;;1.60;;
11263;SDS011;5689;48.798;9.070;2023-03-01T03:37:48;1.60;;;1.50;;
11263;SDS011;5689;48.798;9.070;2023-03-01T03:43:03;1.40;;;1.40;;
11263;SDS011;5689;48.798;9.070;2023-03-01T03:45:33;1.40;;;1.40;;
11263;SDS011;5689;48.798;9.070;2023-03-01T03:48:02;1.60;;;1.60;;
11263;SDS011;5689;48.798;9.070;2023-03-01T03:50:32;1.70;;;1.60;;
11263;SDS011;5689;48.798;9.070;2023-03-01T03:53:01;1.60;;;1.60;;
11263;SDS011;5689;48.798;9.070;2023-03-01T03:55:30;1.30;;;1.30;;
11263;SDS011;5689;48.798;9.070;2023-03-01T03:58:02;1.23;;;1.23;;
11263;SDS011;5689;48.798;9.070;2023-03-01T04:00:35;1.30;;;1.30;;
11263;SDS011;5689;48.798;9.070;2023-03-01T04:03:04;1.83;;;1.83;;
11263;SDS011;5689;48.798;9.070;2023-03-01T04:05:32;1.40;;;1.40;;
11263;SDS011;5689;48.798;9.070;2023-03-01T04:08:00;1.43;;;1.43;;
11263;SDS011;5689;48.798;9.070;2023-03-01T04:10:28;1.40;;;1.40;;
11263;SDS011;5689;48.798;9.070;2023-03-01T04:12:58;1.20;;;1.20;;
11263;SDS011;5689;48.798;9.070;2023-03-01T04:15:26;1.43;;;1.43;;
11263;SDS011;5689;48.798;9.070;2023-03-01T04:17:56;1.63;;;1.53;;
11263;SDS011;5689;48.798;9.070;2023-03-01T04:20:26;1.60;;;1.60;;
11263;SDS011;5689;48.798;9.070;2023-03-01T04:22:59;1.30;;;1.30;;
11263;SDS011;5689;48.798;9.070;2023-03-01T04:25:37;1.40;;;1.40;;
11263;SDS011;5689;48.798;9.070;2023-03-01T04:28:07;1.47;;;1.47;;
11263;SDS011;5689;48.798;9.070;2023-03-01T04:30:48;1.47;;;1.47;;
11263;SDS011;5689;48.798;9.070;2023-03-01T04:33:16;1.53;;;1.53;;
11263;SDS011;5689;48.798;9.070;2023-03-01T04:35:45;1.40;;;1.40;;
11263;SDS011;5689;48.798;9.070;2023-03-01T04:38:16;1.43;;;1.43;;
11263;SDS011;5689;48.798;9.070;2023-03-01T04:40:44;1.47;;;1.47;;
11263;SDS011;5689;48.798;9.070;2023-03-01T04:43:13;1.60;;;1.60;;
11263;SDS011;5689;48.798;9.070;2023-03-01T04:45:41;1.30;;;1.30;;
11263;SDS011;5689;48.798;9.070;2023-03-01T04:48:11;1.37;;;1.37;;
11263;SDS011;5689;48.798;9.070;2023-03-01T04:50:40;1.40;;;1.40;;
11263;SDS011;5689;48.798;9.070;2023-03-01T04:53:08;1.13;;;1.13;;
11263;SDS011;5689;48.798;9.070;2023-03-01T04:55:36;1.30;;;1.30;;
11263;SDS011;5689;48.798;9.070;2023-03-01T04:58:04;1.20;;;1.20;;
11263;SDS011;5689;48.798;9.070;2023-03-01T05:00:32;1.40;;;1.40;;
11263;SDS011;5689;48.798;9.070;2023-03-01T05:03:01;1.20;;;1.20;;
11263;SDS011;5689;48.798;9.070;2023-03-01T05:05:32;1.30;;;1.30;;
11263;SDS011;5689;48.798;9.070;2023-03-01T05:08:01;1.27;;;1.27;;
11263;SDS011;5689;48.798;9.070;2023-03-01T05:10:32;1.50;;;1.50;;
11263;SDS011;5689;48.798;9.070;2023-03-01T05:13:03;1.57;;;1.47;;
11263;SDS011;5689;48.798;9.070;2023-03-01T05:15:31;1.50;;;1.50;;
11263;SDS011;5689;48.798;9.070;2023-03-01T05:18:00;1.30;;;1.30;;
11263;SDS011;5689;48.798;9.070;2023-03-01T05:20:29;1.50;;;1.50;;
11263;SDS011;5689;48.798;9.070;2023-03-01T05:23:02;1.47;;;1.47;;
11263;SDS011;5689;48.798;9.070;2023-03-01T05:25:32;1.53;;;1.53;;
11263;SDS011;5689;48.798;9.070;2023-03-01T05:28:01;1.53;;;1.53;;
11263;SDS011;5689;48.798;9.070;2023-03-01T05:30:30;1.53;;;1.53;;
11263;SDS011;5689;48.798;9.070;2023-03-01T05:32:59;1.40;;;1.40;;
11263;SDS011;5689;48.798;9.070;2023-03-01T05:35:27;1.40;;;1.40;;
11263;SDS011;5689;48.798;9.070;2023-03-01T05:38:00;1.50;;;1.50;;
11263;SDS011;5689;48.798;9.070;2023-03-01T05:40:28;1.53;;;1.53;;
11263;SDS011;5689;48.798;9.070;2023-03-01T05:42:56;1.43;;;1.43;;
11263;SDS011;5689;48.798;9.070;2023-03-01T05:45:24;1.63;;;1.63;;
11263;SDS011;5689;48.798;9.070;2023-03-01T05:47:54;1.70;;;1.70;;
11263;SDS011;5689;48.798;9.070;2023-03-01T05:50:23;1.30;;;1.30;;
11263;SDS011;5689;48.798;9.070;2023-03-01T05:52:56;1.40;;;1.40;;
11263;SDS011;5689;48.798;9.070;2023-03-01T05:55:27;1.60;;;1.60;;
11263;SDS011;5689;48.798;9.070;2023-03-01T05:57:57;1.70;;;1.70;;
11263;SDS011;5689;48.798;9.070;2023-03-01T06:00:26;1.73;;;1.73;;
11263;SDS011;5689;48.798;9.070;2023-03-01T06:02:54;1.53;;;1.53;;
11263;SDS011;5689;48.798;9.070;2023-03-01T06:05:23;1.60;;;1.60;;
11263;SDS011;5689;48.798;9.070;2023-03-01T06:07:53;1.87;;;1.80;;
11263;SDS011;5689;48.798;9.070;2023-03-01T06:10:22;1.73;;;1.73;;
11263;SDS011;5689;48.798;9.070;2023-03-01T06:12:51;2.00;;;1.90;;
11263;SDS011;5689;48.798;9.070;2023-03-01T06:15:19;2.00;;;1.90;;
11263;SDS011;5689;48.798;9.070;2023-03-01T06:17:48;1.80;;;1.77;;
11263;SDS011;5689;48.798;9.070;2023-03-01T06:20:17;1.80;;;1.77;;
11263;SDS011;5689;48.798;9.070;2023-03-01T06:22:47;1.70;;;1.70;;
11263;SDS011;5689;48.798;9.070;2023-03-01T06:25:16;1.73;;;1.73;;
11263;SDS011;5689;48.798;9.070;2023-03-01T06:27:46;1.83;;;1.80;;
11263;SDS011;5689;48.798;9.070;2023-03-01T06:30:16;1.60;;;1.60;;
11263;SDS011;5689;48.798;9.070;2023-03-01T06:32:46;1.80;;;1.80;;
11263;SDS011;5689;48.798;9.070;2023-03-01T06:35:15;1.60;;;1.60;;
11263;SDS011;5689;48.798;9.070;2023-03-01T06:37:44;1.70;;;1.70;;
11263;SDS011;5689;48.798;9.070;2023-03-01T06:40:13;1.67;;;1.63;;
11263;SDS011;5689;48.798;9.070;2023-03-01T06:42:42;1.40;;;1.40;;
11263;SDS011;5689;48.798;9.070;2023-03-01T06:45:17;1.83;;;1.77;;
11263;SDS011;5689;48.798;9.070;2023-03-01T06:47:45;1.73;;;1.73;;
11263;SDS011;5689;48.798;9.070;2023-03-01T06:50:14;1.70;;;1.70;;
11263;SDS011;5689;48.798;9.070;2023-03-01T06:52:43;1.50;;;1.50;;
11263;SDS011;5689;48.798;9.070;2023-03-01T06:55:11;1.70;;;1.70;;
11263;SDS011;5689;48.798;9.070;2023-03-01T06:57:39;1.50;;;1.50;;
11263;SDS011;5689;48.798;9.070;2023-03-01T07:00:07;1.50;;;1.50;;
11263;SDS011;5689;48.798;9.070;2023-03-01T07:02:37;1.63;;;1.63;;
11263;SDS011;5689;48.798;9.070;2023-03-01T07:05:06;1.50;;;1.50;;
11263;SDS011;5689;48.798;9.070;2023-03-01T07:07:35;1.70;;;1.70;;
11263;SDS011;5689;48.798;9.070;2023-03-01T07:10:03;1.63;;;1.63;;
11263;SDS011;5689;48.798;9.070;2023-03-01T07:12:32;1.73;;;1.73;;
11263;SDS011;5689;48.798;9.070;2023-03-01T07:15:00;1.60;;;1.60;;
11263;SDS011;5689;48.798;9.070;2023-03-01T07:17:28;1.60;;;1.60;;
11263;SDS011;5689;48.798;9.070;2023-03-01T07:19:57;1.70;;;1.70;;
11263;SDS011;5689;48.798;9.070;2023-03-01T07:22:25;1.90;;;1.80;;
11263;SDS011;5689;48.798;9.070;2023-03-01T07:24:53;1.60;;;1.60;;
11263;SDS011;5689;48.798;9.070;2023-03-01T07:27:21;1.70;;;1.70;;
11263;SDS011;5689;48.798;9.070;2023-03-01T07:29:49;1.70;;;1.70;;
11263;SDS011;5689;48.798;9.070;2023-03-01T07:32:17;1.60;;;1.60;;
11263;SDS011;5689;48.798;9.070;2023-03-01T07:34:46;1.70;;;1.70;;
11263;SDS011;5689;48.798;9.070;2023-03-01T07:37:16;1.67;;;1.63;;
11263;SDS011;5689;48.798;9.070;2023-03-01T07:39:44;1.70;;;1.60;;
11263;SDS011;5689;48.798;9.070;2023-03-01T07:42:12;1.57;;;1.57;;
11263;SDS011;5689;48.798;9.070;2023-03-01T07:44:41;1.47;;;1.47;;
11263;SDS011;5689;48.798;9.070;2023-03-01T07:47:09;1.40;;;1.40;;
11263;SDS011;5689;48.798;9.070;2023-03-01T07:49:37;1.00;;;1.00;;
11263;SDS011;5689;48.798;9.070;2023-03-01T07:52:05;1.00;;;1.00;;
11263;SDS011;5689;48.798;9.070;2023-03-01T07:54:35;1.10;;;1.10;;
11263;SDS011;5689;48.798;9.070;2023-03-01T07:57:03;1.10;;;1.10;;
11263;SDS011;5689;48.798;9.070;2023-03-01T07:59:31;1.10;;;1.10;;
11263;SDS011;5689;48.798;9.070;2023-03-01T08:02:00;0.90;;;0.90;;
11263;SDS011;5689;48.798;9.070;2023-03-01T08:04:28;0.83;;;0.83;;
11263;SDS011;5689;48.798;9.070;2023-03-01T08:06:56;0.73;;;0.73;;
11263;SDS011;5689;48.798;9.070;2023-03-01T08:09:24;0.70;;;0.70;;
11263;SDS011;5689;48.798;9.070;2023-03-01T08:11:55;0.60;;;0.60;;
11263;SDS011;5689;48.798;9.070;2023-03-01T08:14:25;0.60;;;0.60;;
11263;SDS011;5689;48.798;9.070;2023-03-01T08:16:53;0.60;;;0.60;;
11263;SDS011;5689;48.798;9.070;2023-03-01T08:19:22;0.40;;;0.40;;
11263;SDS011;5689;48.798;9.070;2023-03-01T08:21:50;0.40;;;0.40;;
11263;SDS011;5689;48.798;9.070;2023-03-01T08:24:18;0.40;;;0.40;;
11263;SDS011;5689;48.798;9.070;2023-03-01T08:26:46;0.40;;;0.40;;
11263;SDS011;5689;48.798;9.070;2023-03-01T08:29:16;0.60;;;0.60;;
11263;SDS011;5689;48.798;9.070;2023-03-01T08:31:44;0.50;;;0.50;;
11263;SDS011;5689;48.798;9.070;2023-03-01T08:34:13;0.52;;;0.52;;
11263;SDS011;5689;48.798;9.070;2023-03-01T08:36:43;0.40;;;0.40;;
11263;SDS011;5689;48.798;9.070;2023-03-01T08:39:14;0.40;;;0.40;;
11263;SDS011;5689;48.798;9.070;2023-03-01T08:41:44;0.50;;;0.50;;
11263;SDS011;5689;48.798;9.070;2023-03-01T08:44:13;0.50;;;0.50;;
11263;SDS011;5689;48.798;9.070;2023-03-01T08:46:44;0.45;;;0.45;;
11263;SDS011;5689;48.798;9.070;2023-03-01T08:49:13;0.30;;;0.30;;
11263;SDS011;5689;48.798;9.070;2023-03-01T08:51:42;0.40;;;0.40;;
11263;SDS011;5689;48.798;9.070;2023-03-01T08:54:11;0.47;;;0.47;;
11263;SDS011;5689;48.798;9.070;2023-03-01T08:56:41;0.57;;;0.57;;
11263;SDS011;5689;48.798;9.070;2023-03-01T08:59:09;0.47;;;0.47;;
11263;SDS011;5689;48.798;9.070;2023-03-01T09:01:40;0.38;;;0.38;;
11263;SDS011;5689;48.798;9.070;2023-03-01T09:04:09;0.30;;;0.30;;
11263;SDS011;5689;48.798;9.070;2023-03-01T09:06:39;0.50;;;0.50;;
11263;SDS011;5689;48.798;9.070;2023-03-01T09:09:11;0.40;;;0.40;;
11263;SDS011;5689;48.798;9.070;2023-03-01T09:11:42;0.40;;;0.40;;
11263;SDS011;5689;48.798;9.070;2023-03-01T09:14:12;0.50;;;0.50;;
11263;SDS011;5689;48.798;9.070;2023-03-01T09:16:42;0.50;;;0.50;;
11263;SDS011;5689;48.798;9.070;2023-03-01T09:19:11;0.50;;;0.50;;
11263;SDS011;5689;48.798;9.070;2023-03-01T09:21:39;0.50;;;0.50;;
11263;SDS011;5689;48.798;9.070;2023-03-01T09:24:09;0.50;;;0.50;;
11263;SDS011;5689;48.798;9.070;2023-03-01T09:26:40;0.65;;;0.65;;
11263;SDS011;5689;48.798;9.070;2023-03-01T09:29:09;0.60;;;0.60;;
11263;SDS011;5689;48.798;9.070;2023-03-01T09:31:37;0.70;;;0.70;;
11263;SDS011;5689;48.798;9.070;2023-03-01T09:34:07;0.77;;;0.77;;
11263;SDS011;5689;48.798;9.070;2023-03-01T09:36:36;0.80;;;0.80;;
11263;SDS011;5689;48.798;9.070;2023-03-01T09:39:05;0.70;;;0.70;;
11263;SDS011;5689;48.798;9.070;2023-03-01T09:41:38;0.50;;;0.50;;
11263;SDS011;5689;48.798;9.070;2023-03-01T09:44:13;0.80;;;0.80;;
11263;SDS011;5689;48.798;9.070;2023-03-01T09:46:57;0.83;;;0.83;;
11263;SDS011;5689;48.798;9.070;2023-03-01T09:49:28;0.90;;;0.90;;
11263;SDS011;5689;48.798;9.070;2023-03-01T09:51:59;0.70;;;0.70;;
11263;SDS011;5689;48.798;9.070;2023-03-01T09:54:31;0.70;;;0.70;;
11263;SDS011;5689;48.798;9.070;2023-03-01T09:57:06;0.60;;;0.60;;
11263;SDS011;5689;48.798;9.070;2023-03-01T09:59:49;0.65;;;0.65;;
11263;SDS011;5689;48.798;9.070;2023-03-01T10:02:31;0.67;;;0.67;;
11263;SDS011;5689;48.798;9.070;2023-03-01T10:05:12;0.50;;;0.50;;
11263;SDS011;5689;48.798;9.070;2023-03-01T10:07:49;0.50;;;0.50;;
11263;SDS011;5689;48.798;9.070;2023-03-01T10:10:27;0.65;;;0.65;;
11263;SDS011;5689;48.798;9.070;2023-03-01T10:12:59;0.55;;;0.55;;
11263;SDS011;5689;48.798;9.070;2023-03-01T10:15:39;0.50;;;0.50;;
11263;SDS011;5689;48.798;9.070;2023-03-01T10:18:12;0.40;;;0.40;;
11263;SDS011;5689;48.798;9.070;2023-03-01T10:20:45;0.40;;;0.40;;
11263;SDS011;5689;48.798;9.070;2023-03-01T10:23:19;0.30;;;0.30;;
11263;SDS011;5689;48.798;9.070;2023-03-01T10:25:50;0.40;;;0.40;;
11263;SDS011;5689;48.798;9.070;2023-03-01T10:28:51;0.40;;;0.40;;
11263;SDS011;5689;48.798;9.070;2023-03-01T10:31:31;0.40;;;0.40;;
11263;SDS011;5689;48.798;9.070;2023-03-01T10:34:10;0.40;;;0.40;;
11263;SDS011;5689;48.798;9.070;2023-03-01T10:36:41;0.50;;;0.50;;
11263;SDS011;5689;48.798;9.070;2023-03-01T10:39:16;0.60;;;0.60;;
11263;SDS011;5689;48.798;9.070;2023-03-01T10:41:56;0.60;;;0.60;;
11263;SDS011;5689;48.798;9.070;2023-03-01T10:44:42;0.52;;;0.52;;
11263;SDS011;5689;48.798;9.070;2023-03-01T10:47:13;0.47;;;0.47;;
11263;SDS011;5689;48.798;9.070;2023-03-01T10:49:51;0.40;;;0.40;;
11263;SDS011;5689;48.798;9.070;2023-03-01T10:52:30;0.40;;;0.40;;
11263;SDS011;5689;48.798;9.070;2023-03-01T10:55:03;0.40;;;0.40;;
11263;SDS011;5689;48.798;9.070;2023-03-01T10:57:47;0.30;;;0.30;;
11263;SDS011;5689;48.798;9.070;2023-03-01T11:00:18;0.30;;;0.30;;
11263;SDS011;5689;48.798;9.070;2023-03-01T11:02:49;0.30;;;0.30;;
11263;SDS011;5689;48.798;9.070;2023-03-01T11:05:20;0.40;;;0.40;;
11263;SDS011;5689;48.798;9.070;2023-03-01T11:07:53;0.20;;;0.20;;
11263;SDS011;5689;48.798;9.070;2023-03-01T11:10:23;0.20;;;0.20;;
11263;SDS011;5689;48.798;9.070;2023-03-01T11:12:53;0.30;;;0.30;;
11263;SDS011;5689;48.798;9.070;2023-03-01T11:15:32;0.30;;;0.30;;
11263;SDS011;5689;48.798;9.070;2023-03-01T11:18:00;0.22;;;0.22;;
11263;SDS011;5689;48.798;9.070;2023-03-01T11:20:39;0.20;;;0.20;;
11263;SDS011;5689;48.798;9.070;2023-03-01T11:23:10;0.20;;;0.20;;
11263;SDS011;5689;48.798;9.070;2023-03-01T11:25:40;0.30;;;0.30;;
11263;SDS011;5689;48.798;9.070;2023-03-01T11:28:12;0.20;;;0.20;;
11263;SDS011;5689;48.798;9.070;2023-03-01T11:30:44;0.40;;;0.40;;
11263;SDS011;5689;48.798;9.070;2023-03-01T11:33:34;0.30;;;0.30;;
11263;SDS011;5689;48.798;9.070;2023-03-01T11:36:07;0.20;;;0.20;;
11263;SDS011;5689;48.798;9.070;2023-03-01T11:38:42;0.30;;;0.30;;
11263;SDS011;5689;48.798;9.070;2023-03-01T11:41:12;0.40;;;0.40;;
11263;SDS011;5689;48.798;9.070;2023-03-01T11:43:45;0.50;;;0.50;;
11263;SDS011;5689;48.798;9.070;2023-03-01T11:46:31;0.40;;;0.40;;
11263;SDS011;5689;48.798;9.070;2023-03-01T11:49:17;0.30;;;0.30;;
11263;SDS011;5689;48.798;9.070;2023-03-01T11:52:08;0.60;;;0.60;;
11263;SDS011;5689;48.798;9.070;2023-03-01T11:54:52;0.40;;;0.40;;
11263;SDS011;5689;48.798;9.070;2023-03-01T11:57:34;0.40;;;0.40;;
11263;SDS011;5689;48.798;9.070;2023-03-01T12:00:15;0.40;;;0.40;;
11263;SDS011;5689;48.798;9.070;2023-03-01T12:03:17;0.30;;;0.30;;
11263;SDS011;5689;48.798;9.070;2023-03-01T12:05:56;0.30;;;0.30;;
11263;SDS011;5689;48.798;9.070;2023-03-01T12:08:40;0.35;;;0.35;;
11263;SDS011;5689;48.798;9.070;2023-03-01T12:11:20;0.40;;;0.40;;
11263;SDS011;5689;48.798;9.070;2023-03-01T12:14:04;0.30;;;0.30;;
11263;SDS011;5689;48.798;9.070;2023-03-01T12:16:56;0.30;;;0.30;;
11263;SDS011;5689;48.798;9.070;2023-03-01T12:19:33;0.30;;;0.30;;
11263;SDS011;5689;48.798;9.070;2023-03-01T12:22:24;0.20;;;0.20;;
11263;SDS011;5689;48.798;9.070;2023-03-01T12:30:54;0.20;;;0.20;;
11263;SDS011;5689;48.798;9.070;2023-03-01T12:33:38;0.30;;;0.30;;
11263;SDS011;5689;48.798;9.070;2023-03-01T12:39:20;0.20;;;0.20;;
11263;SDS011;5689;48.798;9.070;2023-03-01T12:42:01;0.30;;;0.30;;
11263;SDS011;5689;48.798;9.070;2023-03-01T12:44:46;0.20;;;0.20;;
11263;SDS011;5689;48.798;9.070;2023-03-01T12:47:34;0.22;;;0.22;;
11263;SDS011;5689;48.798;9.070;2023-03-01T12:50:19;0.20;;;0.20;;
11263;SDS011;5689;48.798;9.070;2023-03-01T12:52:49;0.30;;;0.30;;
11263;SDS011;5689;48.798;9.070;2023-03-01T12:55:24;0.20;;;0.20;;
11263;SDS011;5689;48.798;9.070;2023-03-01T12:58:00;0.30;;;0.30;;
11263;SDS011;5689;48.798;9.070;2023-03-01T13:00:39;0.20;;;0.20;;
11263;SDS011;5689;48.798;9.070;2023-03-01T13:03:18;0.20;;;0.20;;
11263;SDS011;5689;48.798;9.070;2023-03-01T13:05:57;0.20;;;0.20;;
11263;SDS011;5689;48.798;9.070;2023-03-01T13:08:34;0.30;;;0.30;;
11263;SDS011;5689;48.798;9.070;2023-03-01T13:11:12;0.25;;;0.25;;
11263;SDS011;5689;48.798;9.070;2023-03-01T13:13:45;0.20;;;0.20;;
11263;SDS011;5689;48.798;9.070;2023-03-01T13:16:20;0.20;;;0.20;;
11263;SDS011;5689;48.798;9.070;2023-03-01T13:19:10;0.20;;;0.20;;
11263;SDS011;5689;48.798;9.070;2023-03-01T13:21:41;0.13;;;0.13;;
11263;SDS011;5689;48.798;9.070;2023-03-01T13:24:24;0.10;;;0.10;;
11263;SDS011;5689;48.798;9.070;2023-03-01T13:27:10;0.20;;;0.20;;
11263;SDS011;5689;48.798;9.070;2023-03-01T13:29:51;0.20;;;0.20;;
11263;SDS011;5689;48.798;9.070;2023-03-01T13:32:21;0.20;;;0.20;;
11263;SDS011;5689;48.798;9.070;2023-03-01T13:35:08;0.20;;;0.20;;
11263;SDS011;5689;48.798;9.070;2023-03-01T13:41:04;0.20;;;0.20;;
11263;SDS011;5689;48.798;9.070;2023-03-01T13:43:33;0.13;;;0.13;;
11263;SDS011;5689;48.798;9.070;2023-03-01T13:46:07;0.20;;;0.20;;
11263;SDS011;5689;48.798;9.070;2023-03-01T13:48:38;0.10;;;0.10;;
11263;SDS011;5689;48.798;9.070;2023-03-01T13:51:11;0.20;;;0.20;;
11263;SDS011;5689;48.798;9.070;2023-03-01T13:53:40;0.20;;;0.20;;
11263;SDS011;5689;48.798;9.070;2023-03-01T13:56:12;0.20;;;0.20;;
11263;SDS011;5689;48.798;9.070;2023-03-01T13:58:52;0.20;;;0.20;;
11263;SDS011;5689;48.798;9.070;2023-03-01T14:01:26;0.20;;;0.20;;
11263;SDS011;5689;48.798;9.070;2023-03-01T14:03:56;0.13;;;0.13;;
11263;SDS011;5689;48.798;9.070;2023-03-01T14:06:27;0.13;;;0.13;;
11263;SDS011;5689;48.798;9.070;2023-03-01T14:09:01;0.20;;;0.20;;
11263;SDS011;5689;48.798;9.070;2023-03-01T14:14:45;0.30;;;0.30;;
11263;SDS011;5689;48.798;9.070;2023-03-01T14:17:24;0.20;;;0.20;;
11263;SDS011;5689;48.798;9.070;2023-03-01T14:20:18;0.20;;;0.20;;
11263;SDS011;5689;48.798;9.070;2023-03-01T14:22:50;0.30;;;0.30;;
11263;SDS011;5689;48.798;9.070;2023-03-01T14:25:28;0.20;;;0.20;;
11263;SDS011;5689;48.798;9.070;2023-03-01T14:28:00;0.20;;;0.20;;
11263;SDS011;5689;48.798;9.070;2023-03-01T14:30:32;0.20;;;0.20;;
11263;SDS011;5689;48.798;9.070;2023-03-01T14:33:04;0.20;;;0.20;;
11263;SDS011;5689;48.798;9.070;2023-03-01T14:35:34;0.25;;;0.25;;
11263;SDS011;5689;48.798;9.070;2023-03-01T14:38:04;0.20;;;0.20;;
11263;SDS011;5689;48.798;9.070;2023-03-01T14:40:33;0.10;;;0.10;;
11263;SDS011;5689;48.798;9.070;2023-03-01T14:43:08;0.20;;;0.20;;
11263;SDS011;5689;48.798;9.070;2023-03-01T14:45:38;0.30;;;0.30;;
11263;SDS011;5689;48.798;9.070;2023-03-01T14:48:07;0.30;;;0.30;;
11263;SDS011;5689;48.798;9.070;2023-03-01T14:50:35;0.30;;;0.30;;
11263;SDS011;5689;48.798;9.070;2023-03-01T14:53:14;0.40;;;0.40;;
11263;SDS011;5689;48.798;9.070;2023-03-01T14:55:46;0.30;;;0.30;;
11263;SDS011;5689;48.798;9.070;2023-03-01T14:58:18;0.30;;;0.30;;
11263;SDS011;5689;48.798;9.070;2023-03-01T15:00:48;0.20;;;0.20;;
11263;SDS011;5689;48.798;9.070;2023-03-01T15:03:25;0.30;;;0.30;;
11263;SDS011;5689;48.798;9.070;2023-03-01T15:05:57;0.30;;;0.30;;
11263;SDS011;5689;48.798;9.070;2023-03-01T15:08:29;0.20;;;0.20;;
11263;SDS011;5689;48.798;9.070;2023-03-01T15:11:01;0.20;;;0.20;;
11263;SDS011;5689;48.798;9.070;2023-03-01T15:13:34;0.30;;;0.30;;
11263;SDS011;5689;48.798;9.070;2023-03-01T15:16:04;0.30;;;0.30;;
11263;SDS011;5689;48.798;9.070;2023-03-01T15:18:35;0.30;;;0.30;;
11263;SDS011;5689;48.798;9.070;2023-03-01T15:21:05;0.38;;;0.38;;
11263;SDS011;5689;48.798;9.070;2023-03-01T15:23:37;0.30;;;0.30;;
11263;SDS011;5689;48.798;9.070;2023-03-01T15:26:17;0.43;;;0.43;;
11263;SDS011;5689;48.798;9.070;2023-03-01T15:28:53;0.50;;;0.50;;
11263;SDS011;5689;48.798;9.070;2023-03-01T15:31:25;0.60;;;0.60;;
11263;SDS011;5689;48.798;9.070;2023-03-01T15:34:07;0.50;;;0.50;;
11263;SDS011;5689;48.798;9.070;2023-03-01T15:36:38;0.60;;;0.60;;
11263;SDS011;5689;48.798;9.070;2023-03-01T15:39:33;0.60;;;0.60;;
11263;SDS011;5689;48.798;9.070;2023-03-01T15:42:05;0.50;;;0.50;;
11263;SDS011;5689;48.798;9.070;2023-03-01T15:44:35;0.50;;;0.50;;
11263;SDS011;5689;48.798;9.070;2023-03-01T15:47:21;0.50;;;0.50;;
11263;SDS011;5689;48.798;9.070;2023-03-01T15:49:54;0.40;;;0.40;;